sensor_id;sensor_type;location;lat;lon;timestamp;P1;durP1;ratioP1;P2;durP2;ratioP2
5279;SDS011;2663;53.588;10.010;2022-08-01T00:02:27;16.30;;;11.07;;
5279;SDS011;2663;53.588;10.010;2022-08-01T00:04:54;13.90;;;10.77;;
5279;SDS011;2663;53.588;10.010;2022-08-01T00:07:21;15.60;;;11.57;;
5279;SDS011;2663;53.588;10.010;2022-08-01T00:09:48;15.00;;;11.60;;
5279;SDS011;2663;53.588;10.010;2022-08-01T00:12:15;13.00;;;10.87;;
5279;SDS011;2663;53.588;10.010;2022-08-01T00:14:41;11.40;;;9.80;;
5279;SDS011;2663;53.588;10.010;2022-08-01T00:17:08;14.37;;;11.50;;
5279;SDS011;2663;53.588;10.010;2022-08-01T00:19:35;17.57;;;9.73;;
5279;SDS011;2663;53.588;10.010;2022-08-01T00:22:01;13.80;;;10.50;;
5279;SDS011;2663;53.588;10.010;2022-08-01T00:24:28;14.60;;;10.77;;
5279;SDS011;2663;53.588;10.010;2022-08-01T00:26:55;15.00;;;10.43;;
5279;SDS011;2663;53.588;10.010;2022-08-01T00:29:22;11.60;;;9.73;;
5279;SDS011;2663;53.588;10.010;2022-08-01T00:32:08;14.20;;;10.40;;
5279;SDS011;2663;53.588;10.010;2022-08-01T00:34:35;30.97;;;10.47;;
5279;SDS011;2663;53.588;10.010;2022-08-01T00:37:02;15.37;;;10.60;;
5279;SDS011;2663;53.588;10.010;2022-08-01T00:39:29;16.10;;;10.77;;
5279;SDS011;2663;53.588;10.010;2022-08-01T00:41:55;14.23;;;10.43;;
5279;SDS011;2663;53.588;10.010;2022-08-01T00:44:25;13.77;;;9.87;;
5279;SDS011;2663;53.588;10.010;2022-08-01T00:46:52;19.40;;;10.40;;
5279;SDS011;2663;53.588;10.010;2022-08-01T00:49:19;17.53;;;11.17;;
5279;SDS011;2663;53.588;10.010;2022-08-01T00:51:46;22.97;;;11.13;;
5279;SDS011;2663;53.588;10.010;2022-08-01T00:54:12;13.80;;;10.17;;
5279;SDS011;2663;53.588;10.010;2022-08-01T00:56:42;15.57;;;10.70;;
5279;SDS011;2663;53.588;10.010;2022-08-01T00:59:09;14.57;;;10.10;;
5279;SDS011;2663;53.588;10.010;2022-08-01T01:01:40;16.60;;;9.60;;
5279;SDS011;2663;53.588;10.010;2022-08-01T01:04:12;11.20;;;8.63;;
5279;SDS011;2663;53.588;10.010;2022-08-01T01:06:54;12.37;;;9.03;;
5279;SDS011;2663;53.588;10.010;2022-08-01T01:15:30;11.23;;;8.30;;
5279;SDS011;2663;53.588;10.010;2022-08-01T01:20:40;13.73;;;8.77;;
5279;SDS011;2663;53.588;10.010;2022-08-01T01:31:36;11.73;;;9.03;;
5279;SDS011;2663;53.588;10.010;2022-08-01T01:34:09;14.10;;;10.20;;
5279;SDS011;2663;53.588;10.010;2022-08-01T01:36:38;12.80;;;9.90;;
5279;SDS011;2663;53.588;10.010;2022-08-01T01:39:06;13.90;;;10.63;;
5279;SDS011;2663;53.588;10.010;2022-08-01T01:41:34;12.60;;;9.10;;
5279;SDS011;2663;53.588;10.010;2022-08-01T01:44:02;13.27;;;9.53;;
5279;SDS011;2663;53.588;10.010;2022-08-01T01:46:31;20.53;;;10.70;;
5279;SDS011;2663;53.588;10.010;2022-08-01T01:48:58;14.43;;;10.27;;
5279;SDS011;2663;53.588;10.010;2022-08-01T01:51:27;15.43;;;9.70;;
5279;SDS011;2663;53.588;10.010;2022-08-01T01:53:55;14.43;;;9.87;;
5279;SDS011;2663;53.588;10.010;2022-08-01T01:56:23;22.10;;;9.90;;
5279;SDS011;2663;53.588;10.010;2022-08-01T01:58:54;18.03;;;8.63;;
5279;SDS011;2663;53.588;10.010;2022-08-01T02:01:23;23.67;;;9.90;;
5279;SDS011;2663;53.588;10.010;2022-08-01T02:04:14;14.87;;;9.90;;
5279;SDS011;2663;53.588;10.010;2022-08-01T02:06:43;18.70;;;9.70;;
5279;SDS011;2663;53.588;10.010;2022-08-01T02:09:20;25.83;;;10.37;;
5279;SDS011;2663;53.588;10.010;2022-08-01T02:11:48;17.40;;;9.47;;
5279;SDS011;2663;53.588;10.010;2022-08-01T02:14:34;17.47;;;10.23;;
5279;SDS011;2663;53.588;10.010;2022-08-01T02:17:01;14.33;;;8.90;;
5279;SDS011;2663;53.588;10.010;2022-08-01T02:19:30;16.93;;;8.90;;
5279;SDS011;2663;53.588;10.010;2022-08-01T02:22:05;13.87;;;8.80;;
5279;SDS011;2663;53.588;10.010;2022-08-01T02:24:37;12.23;;;7.90;;
5279;SDS011;2663;53.588;10.010;2022-08-01T02:27:22;13.07;;;8.33;;
5279;SDS011;2663;53.588;10.010;2022-08-01T02:32:59;9.20;;;7.80;;
5279;SDS011;2663;53.588;10.010;2022-08-01T02:35:25;15.60;;;7.70;;
5279;SDS011;2663;53.588;10.010;2022-08-01T02:37:54;16.10;;;9.30;;
5279;SDS011;2663;53.588;10.010;2022-08-01T02:40:23;14.63;;;8.80;;
5279;SDS011;2663;53.588;10.010;2022-08-01T02:42:54;13.63;;;8.60;;
5279;SDS011;2663;53.588;10.010;2022-08-01T02:45:23;9.97;;;7.60;;
5279;SDS011;2663;53.588;10.010;2022-08-01T02:47:54;9.03;;;7.67;;
5279;SDS011;2663;53.588;10.010;2022-08-01T02:50:25;15.73;;;7.47;;
5279;SDS011;2663;53.588;10.010;2022-08-01T02:52:54;11.23;;;7.63;;
5279;SDS011;2663;53.588;10.010;2022-08-01T02:55:23;12.03;;;7.77;;
5279;SDS011;2663;53.588;10.010;2022-08-01T02:57:50;11.67;;;7.33;;
5279;SDS011;2663;53.588;10.010;2022-08-01T03:00:26;8.40;;;6.87;;
5279;SDS011;2663;53.588;10.010;2022-08-01T03:02:54;10.53;;;7.73;;
5279;SDS011;2663;53.588;10.010;2022-08-01T03:05:23;9.23;;;7.37;;
5279;SDS011;2663;53.588;10.010;2022-08-01T03:07:51;14.47;;;7.00;;
5279;SDS011;2663;53.588;10.010;2022-08-01T03:10:21;12.90;;;6.63;;
5279;SDS011;2663;53.588;10.010;2022-08-01T03:12:49;9.37;;;6.33;;
5279;SDS011;2663;53.588;10.010;2022-08-01T03:15:16;12.20;;;6.33;;
5279;SDS011;2663;53.588;10.010;2022-08-01T03:17:45;10.83;;;6.10;;
5279;SDS011;2663;53.588;10.010;2022-08-01T03:20:16;13.23;;;7.10;;
5279;SDS011;2663;53.588;10.010;2022-08-01T03:22:44;15.53;;;6.37;;
5279;SDS011;2663;53.588;10.010;2022-08-01T03:25:13;13.97;;;5.80;;
5279;SDS011;2663;53.588;10.010;2022-08-01T03:27:42;14.40;;;6.10;;
5279;SDS011;2663;53.588;10.010;2022-08-01T03:30:11;8.23;;;5.30;;
5279;SDS011;2663;53.588;10.010;2022-08-01T03:32:39;9.30;;;6.07;;
5279;SDS011;2663;53.588;10.010;2022-08-01T03:35:06;9.07;;;6.13;;
5279;SDS011;2663;53.588;10.010;2022-08-01T03:37:38;6.00;;;5.43;;
5279;SDS011;2663;53.588;10.010;2022-08-01T03:40:31;8.80;;;5.30;;
5279;SDS011;2663;53.588;10.010;2022-08-01T03:43:07;10.60;;;4.90;;
5279;SDS011;2663;53.588;10.010;2022-08-01T03:45:41;6.33;;;4.80;;
5279;SDS011;2663;53.588;10.010;2022-08-01T03:48:16;9.30;;;5.60;;
5279;SDS011;2663;53.588;10.010;2022-08-01T03:50:47;6.27;;;5.20;;
5279;SDS011;2663;53.588;10.010;2022-08-01T03:53:18;10.10;;;5.40;;
5279;SDS011;2663;53.588;10.010;2022-08-01T03:55:49;7.43;;;4.80;;
5279;SDS011;2663;53.588;10.010;2022-08-01T03:58:16;11.93;;;6.30;;
5279;SDS011;2663;53.588;10.010;2022-08-01T04:00:43;7.80;;;5.43;;
5279;SDS011;2663;53.588;10.010;2022-08-01T04:03:11;6.53;;;4.80;;
5279;SDS011;2663;53.588;10.010;2022-08-01T04:05:42;10.60;;;5.50;;
5279;SDS011;2663;53.588;10.010;2022-08-01T04:08:09;10.67;;;6.10;;
5279;SDS011;2663;53.588;10.010;2022-08-01T04:10:36;6.80;;;5.00;;
5279;SDS011;2663;53.588;10.010;2022-08-01T04:13:03;13.43;;;5.60;;
5279;SDS011;2663;53.588;10.010;2022-08-01T04:15:30;8.30;;;4.70;;
5279;SDS011;2663;53.588;10.010;2022-08-01T04:17:57;7.80;;;5.33;;
5279;SDS011;2663;53.588;10.010;2022-08-01T04:20:23;8.40;;;5.80;;
5279;SDS011;2663;53.588;10.010;2022-08-01T04:22:51;9.17;;;5.63;;
5279;SDS011;2663;53.588;10.010;2022-08-01T04:25:32;7.63;;;5.57;;
5279;SDS011;2663;53.588;10.010;2022-08-01T04:28:00;13.30;;;6.37;;
5279;SDS011;2663;53.588;10.010;2022-08-01T04:30:33;11.97;;;5.37;;
5279;SDS011;2663;53.588;10.010;2022-08-01T04:33:02;9.83;;;4.83;;
5279;SDS011;2663;53.588;10.010;2022-08-01T04:35:32;9.10;;;6.03;;
5279;SDS011;2663;53.588;10.010;2022-08-01T04:38:21;10.50;;;5.10;;
5279;SDS011;2663;53.588;10.010;2022-08-01T04:40:53;8.10;;;5.30;;
5279;SDS011;2663;53.588;10.010;2022-08-01T04:43:20;5.57;;;4.40;;
5279;SDS011;2663;53.588;10.010;2022-08-01T04:45:47;5.63;;;4.20;;
5279;SDS011;2663;53.588;10.010;2022-08-01T04:48:15;8.03;;;4.47;;
5279;SDS011;2663;53.588;10.010;2022-08-01T04:50:43;5.60;;;4.43;;
5279;SDS011;2663;53.588;10.010;2022-08-01T04:53:14;6.33;;;3.83;;
5279;SDS011;2663;53.588;10.010;2022-08-01T04:55:43;5.43;;;3.50;;
5279;SDS011;2663;53.588;10.010;2022-08-01T04:58:14;6.03;;;3.57;;
5279;SDS011;2663;53.588;10.010;2022-08-01T05:00:44;3.90;;;3.50;;
5279;SDS011;2663;53.588;10.010;2022-08-01T05:03:11;5.40;;;4.17;;
5279;SDS011;2663;53.588;10.010;2022-08-01T05:05:38;12.50;;;4.27;;
5279;SDS011;2663;53.588;10.010;2022-08-01T05:08:05;11.73;;;2.93;;
5279;SDS011;2663;53.588;10.010;2022-08-01T05:10:32;3.43;;;2.70;;
5279;SDS011;2663;53.588;10.010;2022-08-01T05:12:59;6.30;;;2.90;;
5279;SDS011;2663;53.588;10.010;2022-08-01T05:15:26;3.20;;;1.80;;
5279;SDS011;2663;53.588;10.010;2022-08-01T05:17:53;3.37;;;2.10;;
5279;SDS011;2663;53.588;10.010;2022-08-01T05:20:20;2.50;;;2.30;;
5279;SDS011;2663;53.588;10.010;2022-08-01T05:22:47;2.90;;;1.93;;
5279;SDS011;2663;53.588;10.010;2022-08-01T05:25:14;3.47;;;2.03;;
5279;SDS011;2663;53.588;10.010;2022-08-01T05:27:45;3.57;;;2.03;;
5279;SDS011;2663;53.588;10.010;2022-08-01T05:30:16;3.30;;;2.00;;
5279;SDS011;2663;53.588;10.010;2022-08-01T05:32:43;10.23;;;2.53;;
5279;SDS011;2663;53.588;10.010;2022-08-01T05:35:10;6.00;;;1.80;;
5279;SDS011;2663;53.588;10.010;2022-08-01T05:37:36;3.30;;;1.63;;
5279;SDS011;2663;53.588;10.010;2022-08-01T05:40:03;2.70;;;1.80;;
5279;SDS011;2663;53.588;10.010;2022-08-01T05:42:31;3.33;;;2.27;;
5279;SDS011;2663;53.588;10.010;2022-08-01T05:44:58;4.00;;;2.83;;
5279;SDS011;2663;53.588;10.010;2022-08-01T05:47:24;7.70;;;1.93;;
5279;SDS011;2663;53.588;10.010;2022-08-01T05:49:51;2.60;;;2.40;;
5279;SDS011;2663;53.588;10.010;2022-08-01T05:52:18;5.47;;;2.30;;
5279;SDS011;2663;53.588;10.010;2022-08-01T05:54:44;2.83;;;2.57;;
5279;SDS011;2663;53.588;10.010;2022-08-01T05:57:11;4.30;;;2.50;;
5279;SDS011;2663;53.588;10.010;2022-08-01T05:59:40;3.80;;;3.10;;
5279;SDS011;2663;53.588;10.010;2022-08-01T06:02:07;4.47;;;2.73;;
5279;SDS011;2663;53.588;10.010;2022-08-01T06:04:34;4.57;;;2.73;;
5279;SDS011;2663;53.588;10.010;2022-08-01T06:07:01;3.40;;;2.90;;
5279;SDS011;2663;53.588;10.010;2022-08-01T06:09:28;7.70;;;3.40;;
5279;SDS011;2663;53.588;10.010;2022-08-01T06:11:56;4.70;;;2.67;;
5279;SDS011;2663;53.588;10.010;2022-08-01T06:14:23;6.60;;;3.23;;
5279;SDS011;2663;53.588;10.010;2022-08-01T06:16:50;12.90;;;4.80;;
5279;SDS011;2663;53.588;10.010;2022-08-01T06:19:16;4.70;;;3.20;;
5279;SDS011;2663;53.588;10.010;2022-08-01T06:21:43;7.73;;;3.20;;
5279;SDS011;2663;53.588;10.010;2022-08-01T06:24:10;14.30;;;3.67;;
5279;SDS011;2663;53.588;10.010;2022-08-01T06:26:36;3.70;;;2.90;;
5279;SDS011;2663;53.588;10.010;2022-08-01T06:29:03;7.43;;;3.37;;
5279;SDS011;2663;53.588;10.010;2022-08-01T06:31:30;5.80;;;3.20;;
5279;SDS011;2663;53.588;10.010;2022-08-01T06:33:59;5.70;;;3.10;;
5279;SDS011;2663;53.588;10.010;2022-08-01T06:36:26;4.53;;;3.53;;
5279;SDS011;2663;53.588;10.010;2022-08-01T06:38:53;12.47;;;4.50;;
5279;SDS011;2663;53.588;10.010;2022-08-01T06:41:19;11.23;;;4.73;;
5279;SDS011;2663;53.588;10.010;2022-08-01T06:43:46;16.93;;;6.50;;
5279;SDS011;2663;53.588;10.010;2022-08-01T06:46:13;12.43;;;6.30;;
5279;SDS011;2663;53.588;10.010;2022-08-01T06:48:39;10.27;;;6.37;;
5279;SDS011;2663;53.588;10.010;2022-08-01T06:51:06;18.73;;;6.30;;
5279;SDS011;2663;53.588;10.010;2022-08-01T06:53:39;15.47;;;6.87;;
5279;SDS011;2663;53.588;10.010;2022-08-01T06:56:06;14.93;;;7.50;;
5279;SDS011;2663;53.588;10.010;2022-08-01T06:58:34;11.07;;;6.20;;
5279;SDS011;2663;53.588;10.010;2022-08-01T07:01:02;11.60;;;7.00;;
5279;SDS011;2663;53.588;10.010;2022-08-01T07:03:32;12.87;;;6.70;;
5279;SDS011;2663;53.588;10.010;2022-08-01T07:06:20;21.50;;;6.43;;
5279;SDS011;2663;53.588;10.010;2022-08-01T07:08:51;19.63;;;6.53;;
5279;SDS011;2663;53.588;10.010;2022-08-01T07:11:18;13.07;;;6.70;;
5279;SDS011;2663;53.588;10.010;2022-08-01T07:13:45;14.70;;;6.13;;
5279;SDS011;2663;53.588;10.010;2022-08-01T07:16:13;16.10;;;6.67;;
5279;SDS011;2663;53.588;10.010;2022-08-01T07:18:40;17.73;;;6.50;;
5279;SDS011;2663;53.588;10.010;2022-08-01T07:21:07;11.00;;;6.40;;
5279;SDS011;2663;53.588;10.010;2022-08-01T07:23:54;16.73;;;5.80;;
5279;SDS011;2663;53.588;10.010;2022-08-01T07:26:21;11.00;;;6.13;;
5279;SDS011;2663;53.588;10.010;2022-08-01T07:28:48;12.40;;;7.17;;
5279;SDS011;2663;53.588;10.010;2022-08-01T07:31:15;13.97;;;6.47;;
5279;SDS011;2663;53.588;10.010;2022-08-01T07:33:41;11.87;;;7.80;;
5279;SDS011;2663;53.588;10.010;2022-08-01T07:36:14;24.90;;;7.87;;
5279;SDS011;2663;53.588;10.010;2022-08-01T07:38:42;19.43;;;7.60;;
5279;SDS011;2663;53.588;10.010;2022-08-01T07:41:09;18.43;;;7.43;;
5279;SDS011;2663;53.588;10.010;2022-08-01T07:43:37;28.30;;;8.80;;
5279;SDS011;2663;53.588;10.010;2022-08-01T07:46:03;15.87;;;7.83;;
5279;SDS011;2663;53.588;10.010;2022-08-01T07:48:30;21.73;;;6.53;;
5279;SDS011;2663;53.588;10.010;2022-08-01T07:50:57;11.77;;;5.90;;
5279;SDS011;2663;53.588;10.010;2022-08-01T07:53:24;7.90;;;5.43;;
5279;SDS011;2663;53.588;10.010;2022-08-01T07:55:51;17.27;;;5.93;;
5279;SDS011;2663;53.588;10.010;2022-08-01T07:58:17;14.27;;;5.10;;
5279;SDS011;2663;53.588;10.010;2022-08-01T08:00:44;14.40;;;4.43;;
5279;SDS011;2663;53.588;10.010;2022-08-01T08:03:11;14.17;;;4.30;;
5279;SDS011;2663;53.588;10.010;2022-08-01T08:05:37;15.90;;;3.50;;
5279;SDS011;2663;53.588;10.010;2022-08-01T08:08:24;11.63;;;3.30;;
5279;SDS011;2663;53.588;10.010;2022-08-01T08:10:51;2.97;;;1.90;;
5279;SDS011;2663;53.588;10.010;2022-08-01T08:13:17;14.80;;;2.63;;
5279;SDS011;2663;53.588;10.010;2022-08-01T08:15:46;7.00;;;2.63;;
5279;SDS011;2663;53.588;10.010;2022-08-01T08:18:13;14.40;;;2.97;;
5279;SDS011;2663;53.588;10.010;2022-08-01T08:20:40;3.70;;;2.30;;
5279;SDS011;2663;53.588;10.010;2022-08-01T08:23:07;14.30;;;2.20;;
5279;SDS011;2663;53.588;10.010;2022-08-01T08:26:09;11.90;;;2.90;;
5279;SDS011;2663;53.588;10.010;2022-08-01T08:28:36;14.17;;;2.73;;
5279;SDS011;2663;53.588;10.010;2022-08-01T08:31:05;10.67;;;2.50;;
5279;SDS011;2663;53.588;10.010;2022-08-01T08:33:32;12.93;;;2.67;;
5279;SDS011;2663;53.588;10.010;2022-08-01T08:35:59;7.90;;;2.53;;
5279;SDS011;2663;53.588;10.010;2022-08-01T08:38:26;8.97;;;2.10;;
5279;SDS011;2663;53.588;10.010;2022-08-01T08:40:55;9.70;;;2.70;;
5279;SDS011;2663;53.588;10.010;2022-08-01T08:43:22;14.77;;;2.43;;
5279;SDS011;2663;53.588;10.010;2022-08-01T08:45:51;4.40;;;2.40;;
5279;SDS011;2663;53.588;10.010;2022-08-01T08:48:25;11.50;;;2.93;;
5279;SDS011;2663;53.588;10.010;2022-08-01T08:50:53;5.20;;;1.63;;
5279;SDS011;2663;53.588;10.010;2022-08-01T08:53:20;8.43;;;2.30;;
5279;SDS011;2663;53.588;10.010;2022-08-01T08:55:48;2.07;;;1.87;;
5279;SDS011;2663;53.588;10.010;2022-08-01T08:58:21;10.47;;;2.10;;
5279;SDS011;2663;53.588;10.010;2022-08-01T09:00:57;9.03;;;2.63;;
5279;SDS011;2663;53.588;10.010;2022-08-01T09:03:24;7.87;;;2.57;;
5279;SDS011;2663;53.588;10.010;2022-08-01T09:05:51;6.90;;;3.43;;
5279;SDS011;2663;53.588;10.010;2022-08-01T09:08:18;9.00;;;2.60;;
5279;SDS011;2663;53.588;10.010;2022-08-01T09:10:44;14.10;;;2.80;;
5279;SDS011;2663;53.588;10.010;2022-08-01T09:13:13;12.80;;;2.67;;
5279;SDS011;2663;53.588;10.010;2022-08-01T09:15:41;9.17;;;1.93;;
5279;SDS011;2663;53.588;10.010;2022-08-01T09:21:07;5.03;;;2.20;;
5279;SDS011;2663;53.588;10.010;2022-08-01T09:23:35;11.03;;;2.67;;
5279;SDS011;2663;53.588;10.010;2022-08-01T09:26:21;7.83;;;2.10;;
5279;SDS011;2663;53.588;10.010;2022-08-01T09:28:56;23.83;;;2.30;;
5279;SDS011;2663;53.588;10.010;2022-08-01T09:31:23;12.70;;;1.77;;
5279;SDS011;2663;53.588;10.010;2022-08-01T09:34:03;6.47;;;2.13;;
5279;SDS011;2663;53.588;10.010;2022-08-01T09:36:44;16.67;;;2.70;;
5279;SDS011;2663;53.588;10.010;2022-08-01T09:39:36;9.23;;;2.10;;
5279;SDS011;2663;53.588;10.010;2022-08-01T09:42:19;9.20;;;2.30;;
5279;SDS011;2663;53.588;10.010;2022-08-01T09:44:54;22.80;;;2.30;;
5279;SDS011;2663;53.588;10.010;2022-08-01T09:47:21;10.20;;;2.00;;
5279;SDS011;2663;53.588;10.010;2022-08-01T09:49:54;11.63;;;2.50;;
5279;SDS011;2663;53.588;10.010;2022-08-01T09:52:25;6.60;;;1.93;;
5279;SDS011;2663;53.588;10.010;2022-08-01T09:54:58;12.20;;;2.17;;
5279;SDS011;2663;53.588;10.010;2022-08-01T09:57:26;7.00;;;2.30;;
5279;SDS011;2663;53.588;10.010;2022-08-01T09:59:55;15.27;;;3.30;;
5279;SDS011;2663;53.588;10.010;2022-08-01T10:02:36;7.70;;;1.97;;
5279;SDS011;2663;53.588;10.010;2022-08-01T10:05:07;10.70;;;3.00;;
5279;SDS011;2663;53.588;10.010;2022-08-01T10:07:37;10.33;;;3.27;;
5279;SDS011;2663;53.588;10.010;2022-08-01T10:10:23;16.03;;;4.10;;
5279;SDS011;2663;53.588;10.010;2022-08-01T10:12:57;12.97;;;2.80;;
5279;SDS011;2663;53.588;10.010;2022-08-01T10:15:25;13.33;;;2.97;;
5279;SDS011;2663;53.588;10.010;2022-08-01T10:18:04;8.57;;;2.67;;
5279;SDS011;2663;53.588;10.010;2022-08-01T10:20:46;13.37;;;2.70;;
5279;SDS011;2663;53.588;10.010;2022-08-01T10:23:14;10.07;;;2.47;;
5279;SDS011;2663;53.588;10.010;2022-08-01T10:25:41;9.43;;;2.00;;
5279;SDS011;2663;53.588;10.010;2022-08-01T10:28:16;8.33;;;3.70;;
5279;SDS011;2663;53.588;10.010;2022-08-01T10:30:46;21.27;;;3.77;;
5279;SDS011;2663;53.588;10.010;2022-08-01T10:33:14;9.93;;;2.53;;
5279;SDS011;2663;53.588;10.010;2022-08-01T10:36:03;15.07;;;2.97;;
5279;SDS011;2663;53.588;10.010;2022-08-01T10:38:34;13.83;;;2.40;;
5279;SDS011;2663;53.588;10.010;2022-08-01T10:41:03;8.03;;;2.17;;
5279;SDS011;2663;53.588;10.010;2022-08-01T10:43:31;8.37;;;2.37;;
5279;SDS011;2663;53.588;10.010;2022-08-01T10:46:00;10.07;;;1.67;;
5279;SDS011;2663;53.588;10.010;2022-08-01T10:48:35;8.17;;;1.60;;
5279;SDS011;2663;53.588;10.010;2022-08-01T10:51:09;8.37;;;2.50;;
5279;SDS011;2663;53.588;10.010;2022-08-01T10:53:47;12.20;;;1.93;;
5279;SDS011;2663;53.588;10.010;2022-08-01T10:56:20;7.50;;;1.87;;
5279;SDS011;2663;53.588;10.010;2022-08-01T10:59:00;7.43;;;1.63;;
5279;SDS011;2663;53.588;10.010;2022-08-01T11:01:36;13.53;;;2.10;;
5279;SDS011;2663;53.588;10.010;2022-08-01T11:04:09;5.63;;;1.70;;
5279;SDS011;2663;53.588;10.010;2022-08-01T11:12:17;13.60;;;2.20;;
5279;SDS011;2663;53.588;10.010;2022-08-01T11:17:32;10.00;;;2.00;;
5279;SDS011;2663;53.588;10.010;2022-08-01T11:23:22;8.27;;;2.00;;
5279;SDS011;2663;53.588;10.010;2022-08-01T11:28:31;9.60;;;1.63;;
5279;SDS011;2663;53.588;10.010;2022-08-01T11:41:27;16.47;;;2.00;;
5279;SDS011;2663;53.588;10.010;2022-08-01T11:44:08;9.67;;;1.80;;
5279;SDS011;2663;53.588;10.010;2022-08-01T11:52:28;19.70;;;3.73;;
5279;SDS011;2663;53.588;10.010;2022-08-01T11:54:57;7.70;;;1.50;;
5279;SDS011;2663;53.588;10.010;2022-08-01T11:57:29;2.47;;;1.37;;
5279;SDS011;2663;53.588;10.010;2022-08-01T12:00:02;7.03;;;1.63;;
5279;SDS011;2663;53.588;10.010;2022-08-01T12:02:43;5.00;;;1.37;;
5279;SDS011;2663;53.588;10.010;2022-08-01T12:05:12;7.97;;;1.70;;
5279;SDS011;2663;53.588;10.010;2022-08-01T12:07:43;10.90;;;1.83;;
5279;SDS011;2663;53.588;10.010;2022-08-01T12:10:13;8.63;;;1.63;;
5279;SDS011;2663;53.588;10.010;2022-08-01T12:12:48;7.17;;;1.87;;
5279;SDS011;2663;53.588;10.010;2022-08-01T12:15:17;5.07;;;1.80;;
5279;SDS011;2663;53.588;10.010;2022-08-01T12:17:49;5.10;;;1.40;;
5279;SDS011;2663;53.588;10.010;2022-08-01T12:20:28;4.43;;;1.90;;
5279;SDS011;2663;53.588;10.010;2022-08-01T12:22:58;9.63;;;1.50;;
5279;SDS011;2663;53.588;10.010;2022-08-01T12:25:26;3.97;;;1.47;;
5279;SDS011;2663;53.588;10.010;2022-08-01T12:27:53;10.77;;;2.40;;
5279;SDS011;2663;53.588;10.010;2022-08-01T12:30:22;10.90;;;1.67;;
5279;SDS011;2663;53.588;10.010;2022-08-01T12:32:50;5.13;;;1.50;;
5279;SDS011;2663;53.588;10.010;2022-08-01T12:35:22;8.53;;;2.10;;
5279;SDS011;2663;53.588;10.010;2022-08-01T12:37:58;10.47;;;1.70;;
5279;SDS011;2663;53.588;10.010;2022-08-01T12:40:27;8.23;;;1.47;;
5279;SDS011;2663;53.588;10.010;2022-08-01T12:42:59;7.00;;;1.73;;
5279;SDS011;2663;53.588;10.010;2022-08-01T12:48:05;4.07;;;1.63;;
5279;SDS011;2663;53.588;10.010;2022-08-01T12:50:35;7.17;;;1.40;;
5279;SDS011;2663;53.588;10.010;2022-08-01T12:53:04;5.40;;;1.20;;
5279;SDS011;2663;53.588;10.010;2022-08-01T12:55:32;2.60;;;0.90;;
5279;SDS011;2663;53.588;10.010;2022-08-01T12:58:09;8.70;;;1.90;;
5279;SDS011;2663;53.588;10.010;2022-08-01T13:00:41;2.83;;;1.40;;
5279;SDS011;2663;53.588;10.010;2022-08-01T13:03:11;6.43;;;1.40;;
5279;SDS011;2663;53.588;10.010;2022-08-01T13:05:44;6.40;;;1.50;;
5279;SDS011;2663;53.588;10.010;2022-08-01T13:08:13;9.83;;;1.60;;
5279;SDS011;2663;53.588;10.010;2022-08-01T13:10:41;5.40;;;1.80;;
5279;SDS011;2663;53.588;10.010;2022-08-01T13:13:10;13.53;;;2.00;;
5279;SDS011;2663;53.588;10.010;2022-08-01T13:16:02;4.53;;;1.20;;
5279;SDS011;2663;53.588;10.010;2022-08-01T13:18:32;5.13;;;1.03;;
5279;SDS011;2663;53.588;10.010;2022-08-01T13:21:09;16.70;;;2.10;;
5279;SDS011;2663;53.588;10.010;2022-08-01T13:23:37;4.50;;;1.00;;
5279;SDS011;2663;53.588;10.010;2022-08-01T13:29:11;10.07;;;1.50;;
5279;SDS011;2663;53.588;10.010;2022-08-01T13:31:39;7.37;;;1.50;;
5279;SDS011;2663;53.588;10.010;2022-08-01T13:34:07;6.17;;;1.50;;
5279;SDS011;2663;53.588;10.010;2022-08-01T13:36:34;11.93;;;1.60;;
5279;SDS011;2663;53.588;10.010;2022-08-01T13:39:02;4.83;;;1.43;;
5279;SDS011;2663;53.588;10.010;2022-08-01T13:41:48;8.40;;;1.27;;
5279;SDS011;2663;53.588;10.010;2022-08-01T13:44:15;6.33;;;1.57;;
5279;SDS011;2663;53.588;10.010;2022-08-01T13:46:42;10.40;;;1.70;;
5279;SDS011;2663;53.588;10.010;2022-08-01T13:49:15;8.90;;;2.17;;
5279;SDS011;2663;53.588;10.010;2022-08-01T13:51:44;7.97;;;2.13;;
5279;SDS011;2663;53.588;10.010;2022-08-01T13:54:12;7.20;;;1.47;;
5279;SDS011;2663;53.588;10.010;2022-08-01T13:56:39;8.10;;;1.83;;
5279;SDS011;2663;53.588;10.010;2022-08-01T13:59:06;6.30;;;1.80;;
5279;SDS011;2663;53.588;10.010;2022-08-01T14:01:32;11.33;;;1.73;;
5279;SDS011;2663;53.588;10.010;2022-08-01T14:04:00;7.33;;;1.10;;
5279;SDS011;2663;53.588;10.010;2022-08-01T14:06:28;1.97;;;1.03;;
5279;SDS011;2663;53.588;10.010;2022-08-01T14:08:55;7.60;;;1.53;;
5279;SDS011;2663;53.588;10.010;2022-08-01T14:11:22;3.60;;;1.30;;
5279;SDS011;2663;53.588;10.010;2022-08-01T14:13:49;7.10;;;1.30;;
5279;SDS011;2663;53.588;10.010;2022-08-01T14:16:16;14.27;;;1.80;;
5279;SDS011;2663;53.588;10.010;2022-08-01T14:18:43;4.77;;;1.00;;
5279;SDS011;2663;53.588;10.010;2022-08-01T14:21:10;8.00;;;1.47;;
5279;SDS011;2663;53.588;10.010;2022-08-01T14:23:37;13.00;;;1.80;;
5279;SDS011;2663;53.588;10.010;2022-08-01T14:26:04;4.70;;;1.60;;
5279;SDS011;2663;53.588;10.010;2022-08-01T14:28:37;3.47;;;1.50;;
5279;SDS011;2663;53.588;10.010;2022-08-01T14:31:04;5.97;;;1.40;;
5279;SDS011;2663;53.588;10.010;2022-08-01T14:33:34;6.83;;;1.77;;
5279;SDS011;2663;53.588;10.010;2022-08-01T14:36:01;4.90;;;1.97;;
5279;SDS011;2663;53.588;10.010;2022-08-01T14:38:48;4.80;;;1.30;;
5279;SDS011;2663;53.588;10.010;2022-08-01T14:41:15;8.00;;;1.30;;
5279;SDS011;2663;53.588;10.010;2022-08-01T14:43:42;6.90;;;1.93;;
5279;SDS011;2663;53.588;10.010;2022-08-01T14:46:09;12.40;;;1.50;;
5279;SDS011;2663;53.588;10.010;2022-08-01T14:48:35;3.07;;;1.20;;
5279;SDS011;2663;53.588;10.010;2022-08-01T14:51:02;10.83;;;1.77;;
5279;SDS011;2663;53.588;10.010;2022-08-01T14:53:30;5.90;;;1.47;;
5279;SDS011;2663;53.588;10.010;2022-08-01T14:56:01;2.53;;;1.20;;
5279;SDS011;2663;53.588;10.010;2022-08-01T14:58:29;6.47;;;1.40;;
5279;SDS011;2663;53.588;10.010;2022-08-01T15:00:55;10.70;;;1.57;;
5279;SDS011;2663;53.588;10.010;2022-08-01T15:03:24;3.97;;;1.20;;
5279;SDS011;2663;53.588;10.010;2022-08-01T15:05:51;7.87;;;1.70;;
5279;SDS011;2663;53.588;10.010;2022-08-01T15:08:18;7.03;;;1.63;;
5279;SDS011;2663;53.588;10.010;2022-08-01T15:10:45;5.50;;;1.37;;
5279;SDS011;2663;53.588;10.010;2022-08-01T15:13:12;10.17;;;1.50;;
5279;SDS011;2663;53.588;10.010;2022-08-01T15:15:38;6.07;;;1.77;;
5279;SDS011;2663;53.588;10.010;2022-08-01T15:18:05;11.13;;;2.17;;
5279;SDS011;2663;53.588;10.010;2022-08-01T15:20:32;13.47;;;1.40;;
5279;SDS011;2663;53.588;10.010;2022-08-01T15:22:59;7.63;;;1.70;;
5279;SDS011;2663;53.588;10.010;2022-08-01T15:25:26;7.27;;;2.43;;
5279;SDS011;2663;53.588;10.010;2022-08-01T15:28:10;7.40;;;1.60;;
5279;SDS011;2663;53.588;10.010;2022-08-01T15:30:37;4.13;;;2.27;;
5279;SDS011;2663;53.588;10.010;2022-08-01T15:33:05;4.87;;;1.20;;
5279;SDS011;2663;53.588;10.010;2022-08-01T15:35:32;3.33;;;1.40;;
5279;SDS011;2663;53.588;10.010;2022-08-01T15:37:59;7.10;;;1.60;;
5279;SDS011;2663;53.588;10.010;2022-08-01T15:40:26;14.60;;;1.70;;
5279;SDS011;2663;53.588;10.010;2022-08-01T15:42:54;12.77;;;1.80;;
5279;SDS011;2663;53.588;10.010;2022-08-01T15:45:21;7.67;;;2.10;;
5279;SDS011;2663;53.588;10.010;2022-08-01T15:48:08;7.03;;;1.63;;
5279;SDS011;2663;53.588;10.010;2022-08-01T15:50:35;10.83;;;1.67;;
5279;SDS011;2663;53.588;10.010;2022-08-01T15:53:04;13.43;;;1.70;;
5279;SDS011;2663;53.588;10.010;2022-08-01T15:55:34;8.50;;;2.27;;
5279;SDS011;2663;53.588;10.010;2022-08-01T15:58:03;5.57;;;1.87;;
5279;SDS011;2663;53.588;10.010;2022-08-01T16:00:30;5.70;;;1.93;;
5279;SDS011;2663;53.588;10.010;2022-08-01T16:03:04;9.80;;;1.87;;
5279;SDS011;2663;53.588;10.010;2022-08-01T16:05:32;13.30;;;1.70;;
5279;SDS011;2663;53.588;10.010;2022-08-01T16:08:08;5.33;;;1.40;;
5279;SDS011;2663;53.588;10.010;2022-08-01T16:10:36;8.57;;;1.87;;